Flight Track Log - Related Links

Times and Time Zones

All times are in EDT time to prevent confusion due to time zone crossing. See the FLG3735 flight status page for this flight to view local times or setup timezone preferences in your user account.

Time Position Orientation Groundspeed Altitude Reporting Facility
EDT Latitude Longitude Course Direction KTS MPH feet Rate Location/Type
Fri 10:12:16 PM 42.2314 -83.3342 90° East 164 189 1,300  Level Cleveland Center
Fri 10:13:23 PM 42.2844 -83.2889 32° Northeast 220 253 3,700 1,969 Climbing Cleveland Center
Fri 10:14:24 PM 42.3483 -83.2381 30° Northeast 283 326 5,500 2,182 Climbing Cleveland Center
Fri 10:15:00 PM 42.3079 -82.7942 75° East  Level FlightAware Approximate
Fri 10:15:24 PM 42.3753 -83.1494 68° East 277 319 8,100  Level Cleveland Center
Fri 10:16:00 PM 42.3264 -82.6527 82° East  Level FlightAware Approximate
Fri 10:16:24 PM 42.3503 -83.0528 109° East 293 337 10,800  Level Cleveland Center
Fri 10:17:00 PM 42.3500 -82.5132 90° East  Level FlightAware Approximate
Fri 10:17:24 PM 42.3253 -82.9536 109° East 303 349 11,600  Level Cleveland Center
Fri 10:18:24 PM 42.3403 -82.8275 81° East 315 362 13,400 1,800 Climbing Cleveland Center
Fri 10:19:24 PM 42.3511 -82.6931 84° East 335 386 15,200 1,550 Climbing Cleveland Center
Fri 10:20:24 PM 42.3600 -82.5531 85° East 352 405 16,500 1,250 Climbing Cleveland Center
Fri 10:21:24 PM 42.3644 -82.4097 88° East 370 426 17,700 1,100 Climbing Cleveland Center
Fri 10:22:24 PM 42.3583 -82.2664 93° East 377 434 18,700 1,150 Climbing Cleveland Center
Fri 10:23:24 PM 42.3542 -82.1061 92° East 382 440 20,000 1,200 Climbing Cleveland Center
Fri 10:24:24 PM 42.3456 -81.9597 95° East 387 445 21,100 992 Climbing Cleveland Center
Fri 10:25:25 PM 42.3411 -81.8136 92° East 387 445 22,000 706 Climbing Cleveland Center
Fri 10:26:23 PM 42.3342 -81.6589 93° East 393 452 22,500 454 Climbing Cleveland Center
Fri 10:27:24 PM 42.3272 -81.5211 94° East 407 468 22,900 446 Climbing Cleveland Center
Fri 10:28:24 PM 42.3200 -81.3583 93° East 420 483 23,400 500 Climbing Cleveland Center
Fri 10:29:24 PM 42.3106 -81.1925 94° East 430 495 23,900 500 Climbing Cleveland Center
Fri 10:30:24 PM 42.3031 -81.0294 94° East 430 495 24,400 550 Climbing Cleveland Center
Fri 10:31:24 PM 42.2953 -80.8667 94° East 436 502 25,000 550 Climbing Cleveland Center
Fri 10:32:24 PM 42.2850 -80.6869 94° East 441 507 25,500 500 Climbing Cleveland Center
Fri 10:33:24 PM 42.2747 -80.5242 95° East 441 507 26,000 500 Climbing Cleveland Center
Fri 10:34:24 PM 42.2661 -80.3586 94° East 441 507 26,500 500 Climbing Cleveland Center
Fri 10:35:24 PM 42.2575 -80.1961 94° East 441 507 27,000 500 Climbing Cleveland Center
Fri 10:36:24 PM 42.2464 -80.0333 95° East 441 507 27,500 450 Climbing Cleveland Center
Fri 10:37:24 PM 42.2433 -79.8875 92° East 436 502 27,900 450 Climbing Cleveland Center
Fri 10:38:24 PM 42.2611 -79.7247 82° East 436 502 28,400 500 Climbing Cleveland Center
Fri 10:39:24 PM 42.2786 -79.5617 82° East 436 502 28,900 550 Climbing Cleveland Center
Fri 10:40:24 PM 42.2958 -79.4014 82° East 441 507 29,500 555 Climbing Cleveland Center
Fri 10:41:23 PM 42.3106 -79.2383 83° East 441 507 30,000 500 Climbing Cleveland Center
Fri 10:42:24 PM 42.3294 -79.0778 81° East 441 507 30,500 496 Climbing Cleveland Center
Fri 10:43:24 PM 42.3461 -78.9144 82° East 436 502 31,000 250 Climbing Cleveland Center
Fri 10:44:24 PM 42.3622 -78.7511 82° East 436 502 31,000  Level Cleveland Center
Fri 10:45:23 PM 42.3803 -78.5847 82° East 442 509 31,000  Level Cleveland Center
Fri 10:46:24 PM 42.3961 -78.4156 83° East 447 514 31,000  Level Cleveland Center
Fri 10:47:23 PM 42.4117 -78.2489 83° East 447 514 31,000  Level Cleveland Center
Fri 10:48:23 PM 42.4267 -78.0769 83° East 447 514 31,000  Level Cleveland Center
Fri 10:49:23 PM 42.4439 -77.9072 82° East 447 514 31,000 -100 Level Cleveland Center
Fri 10:50:23 PM 42.4581 -77.7208 84° East 447 514 30,800 -600 Descending Cleveland Center
Fri 10:51:23 PM 42.4767 -77.5483 82° East 447 514 29,800 -537 Descending Cleveland Center
Fri 10:53:44 PM 42.5086 -77.1586 84° East 469 540 29,000 -239 Descending Boston Center
Fri 10:54:44 PM 42.5239 -76.9878 83° East 459 528 29,000  Level Boston Center
Fri 10:55:44 PM 42.5389 -76.8225 83° East 459 528 29,000  Level Boston Center
Fri 10:56:44 PM 42.5514 -76.6542 84° East 454 522 29,000  Level Boston Center
Fri 10:57:44 PM 42.5661 -76.4831 83° East 454 522 29,000 -450 Level Boston Center
Fri 10:58:44 PM 42.5803 -76.3119 84° East 454 522 28,100 -550 Descending Boston Center
Fri 10:59:44 PM 42.5922 -76.1433 84° East 454 522 27,900 -500 Descending Boston Center
Fri 11:00:44 PM 42.6058 -75.9750 84° East 459 528 27,100 -950 Descending Boston Center
Fri 11:01:44 PM 42.6153 -75.8033 86° East 453 521 26,000 -1,050 Descending Boston Center
Fri 11:02:44 PM 42.6306 -75.6406 83° East 448 516 25,000 -1,100 Descending Boston Center
Fri 11:03:44 PM 42.6411 -75.4800 85° East 437 503 23,800 -1,500 Descending Boston Center
Fri 11:04:44 PM 42.6539 -75.3142 84° East 437 503 22,000 -1,600 Descending Boston Center
Fri 11:05:44 PM 42.6611 -75.1844 86° East 437 503 20,600 -1,800 Descending Boston Center
Fri 11:06:44 PM 42.6739 -74.9986 85° East 423 487 18,400 -1,978 Descending Boston Center
Fri 11:07:15 PM 42.6781 -74.9056 86° East 404 465 17,600 -1,400 Descending Boston Center
Fri 11:07:44 PM 42.6833 -74.8494 83° East 409 471 17,000 -1,888 Descending Boston Center
Fri 11:08:44 PM 42.6931 -74.6858 85° East 398 458 14,800 -1,900 Descending Boston Center
Fri 11:09:44 PM 42.7039 -74.5422 84° East 387 445 13,200 -1,650 Descending Boston Center
Fri 11:10:44 PM 42.7103 -74.4294 86° East 357 411 11,500 -1,744 Descending Boston Center
Fri 11:11:41 PM 42.7164 -74.3136 86° East 284 327 9,800 -1,881 Descending Boston Center
Fri 11:12:42 PM 42.7242 -74.2122 84° East 267 307 7,800 -1,930 Descending Boston Center
Fri 11:13:36 PM 42.7297 -74.1192 85° East 264 304 6,100 -1,461 Descending Boston Center
Fri 11:14:37 PM 42.7789 -74.0497 46° Northeast 232 267 5,000 -1,033 Descending Boston Center
Fri 11:15:38 PM 42.8253 -73.9969 40° Northeast 218 251 4,000 -942 Descending Boston Center
Fri 11:16:38 PM 42.8575 -73.9328 56° Northeast 201 231 3,100 -900 Descending Boston Center

Login

Don't have an account? Register now (free) for customized features, flight alerts, and more!